sensor_id;sensor_type;location;lat;lon;timestamp;pressure;altitude;pressure_sealevel;temperature;humidity
11415;BME280;5763;42.714;23.244;2023-02-12T00:00:17;95540.91;;;2.68;37.49
11415;BME280;5763;42.714;23.244;2023-02-12T00:02:44;95537.44;;;2.68;37.47
11415;BME280;5763;42.714;23.244;2023-02-12T00:05:11;95542.13;;;2.74;37.49
11415;BME280;5763;42.714;23.244;2023-02-12T00:07:39;95543.66;;;2.75;37.20
11415;BME280;5763;42.714;23.244;2023-02-12T00:10:06;95552.97;;;2.81;37.27
11415;BME280;5763;42.714;23.244;2023-02-12T00:12:33;95549.06;;;2.75;37.35
11415;BME280;5763;42.714;23.244;2023-02-12T00:15:00;95539.06;;;2.79;37.25
11415;BME280;5763;42.714;23.244;2023-02-12T00:17:27;95528.22;;;2.76;37.21
11415;BME280;5763;42.714;23.244;2023-02-12T00:19:54;95539.44;;;2.81;36.96
11415;BME280;5763;42.714;23.244;2023-02-12T00:22:21;95544.50;;;2.90;36.82
11415;BME280;5763;42.714;23.244;2023-02-12T00:24:49;95543.75;;;2.96;36.75
11415;BME280;5763;42.714;23.244;2023-02-12T00:27:15;95548.00;;;2.94;36.86
11415;BME280;5763;42.714;23.244;2023-02-12T00:29:42;95545.28;;;2.94;36.96
11415;BME280;5763;42.714;23.244;2023-02-12T00:32:09;95535.66;;;2.96;36.57
11415;BME280;5763;42.714;23.244;2023-02-12T00:34:36;95528.28;;;2.90;36.83
11415;BME280;5763;42.714;23.244;2023-02-12T00:37:03;95519.41;;;2.89;37.00
11415;BME280;5763;42.714;23.244;2023-02-12T00:39:29;95520.16;;;2.86;37.33
11415;BME280;5763;42.714;23.244;2023-02-12T00:41:58;95516.66;;;2.82;37.28
11415;BME280;5763;42.714;23.244;2023-02-12T00:44:24;95515.91;;;2.85;37.53
11415;BME280;5763;42.714;23.244;2023-02-12T00:46:51;95504.34;;;2.88;37.24
11415;BME280;5763;42.714;23.244;2023-02-12T00:49:18;95505.09;;;2.85;37.65
11415;BME280;5763;42.714;23.244;2023-02-12T00:51:45;95490.06;;;2.88;37.43
11415;BME280;5763;42.714;23.244;2023-02-12T00:54:12;95488.53;;;2.97;37.44
11415;BME280;5763;42.714;23.244;2023-02-12T00:56:38;95494.72;;;3.01;37.47
11415;BME280;5763;42.714;23.244;2023-02-12T00:59:07;95490.88;;;3.06;37.08
11415;BME280;5763;42.714;23.244;2023-02-12T01:01:33;95483.16;;;3.04;36.84
11415;BME280;5763;42.714;23.244;2023-02-12T01:04:00;95478.09;;;2.99;37.58
11415;BME280;5763;42.714;23.244;2023-02-12T01:06:27;95475.44;;;3.03;37.69
11415;BME280;5763;42.714;23.244;2023-02-12T01:08:54;95486.63;;;3.05;37.87
11415;BME280;5763;42.714;23.244;2023-02-12T01:11:20;95485.84;;;3.01;37.81
11415;BME280;5763;42.714;23.244;2023-02-12T01:13:47;95482.34;;;2.93;38.07
11415;BME280;5763;42.714;23.244;2023-02-12T01:16:18;95481.97;;;2.91;38.35
11415;BME280;5763;42.714;23.244;2023-02-12T01:18:46;95495.06;;;2.86;38.17
11415;BME280;5763;42.714;23.244;2023-02-12T01:21:15;95491.22;;;2.90;38.71
11415;BME280;5763;42.714;23.244;2023-02-12T01:23:42;95500.88;;;2.91;38.55
11415;BME280;5763;42.714;23.244;2023-02-12T01:26:11;95497.38;;;2.87;38.43
11415;BME280;5763;42.714;23.244;2023-02-12T01:28:39;95505.53;;;2.94;38.75
11415;BME280;5763;42.714;23.244;2023-02-12T01:31:09;95504.38;;;3.02;38.67
11415;BME280;5763;42.714;23.244;2023-02-12T01:33:38;95488.16;;;2.99;38.62
11415;BME280;5763;42.714;23.244;2023-02-12T01:36:05;95491.25;;;2.97;38.77
11415;BME280;5763;42.714;23.244;2023-02-12T01:38:32;95490.50;;;3.00;38.92
11415;BME280;5763;42.714;23.244;2023-02-12T01:41:03;95484.28;;;2.96;38.73
11415;BME280;5763;42.714;23.244;2023-02-12T01:43:30;95479.63;;;2.86;39.29
11415;BME280;5763;42.714;23.244;2023-02-12T01:45:59;95473.06;;;2.87;39.74
11415;BME280;5763;42.714;23.244;2023-02-12T01:48:28;95472.69;;;2.85;39.70
11415;BME280;5763;42.714;23.244;2023-02-12T01:50:58;95458.00;;;2.83;39.74
11415;BME280;5763;42.714;23.244;2023-02-12T01:53:30;95468.00;;;2.75;40.24
11415;BME280;5763;42.714;23.244;2023-02-12T01:56:00;95474.16;;;2.72;40.24
11415;BME280;5763;42.714;23.244;2023-02-12T01:58:30;95464.50;;;2.64;40.68
11415;BME280;5763;42.714;23.244;2023-02-12T02:01:01;95467.97;;;2.68;40.21
11415;BME280;5763;42.714;23.244;2023-02-12T02:03:29;95472.59;;;2.64;40.47
11415;BME280;5763;42.714;23.244;2023-02-12T02:06:00;95472.97;;;2.66;40.51
11415;BME280;5763;42.714;23.244;2023-02-12T02:08:29;95466.41;;;2.60;40.62
11415;BME280;5763;42.714;23.244;2023-02-12T02:10:56;95471.03;;;2.63;40.83
11415;BME280;5763;42.714;23.244;2023-02-12T02:13:24;95479.47;;;2.51;41.24
11415;BME280;5763;42.714;23.244;2023-02-12T02:16:13;95457.88;;;2.51;41.16
11415;BME280;5763;42.714;23.244;2023-02-12T02:18:51;95472.16;;;2.48;41.10
11415;BME280;5763;42.714;23.244;2023-02-12T02:21:46;95469.03;;;2.43;41.61
11415;BME280;5763;42.714;23.244;2023-02-12T02:24:36;95471.00;;;2.53;41.38
11415;BME280;5763;42.714;23.244;2023-02-12T02:27:19;95474.50;;;2.60;41.71
11415;BME280;5763;42.714;23.244;2023-02-12T02:30:11;95461.78;;;2.64;41.58
11415;BME280;5763;42.714;23.244;2023-02-12T02:32:42;95461.06;;;2.81;41.39
11415;BME280;5763;42.714;23.244;2023-02-12T02:35:17;95455.63;;;2.67;41.59
11415;BME280;5763;42.714;23.244;2023-02-12T02:37:52;95446.34;;;2.68;41.24
11415;BME280;5763;42.714;23.244;2023-02-12T02:40:24;95454.44;;;2.65;41.16
11415;BME280;5763;42.714;23.244;2023-02-12T02:42:54;95432.03;;;2.57;41.31
11415;BME280;5763;42.714;23.244;2023-02-12T02:45:28;95450.19;;;2.60;41.59
11415;BME280;5763;42.714;23.244;2023-02-12T02:47:59;95451.38;;;2.66;41.45
11415;BME280;5763;42.714;23.244;2023-02-12T02:50:30;95458.75;;;2.73;41.18
11415;BME280;5763;42.714;23.244;2023-02-12T02:53:03;95451.06;;;2.82;40.72
11415;BME280;5763;42.714;23.244;2023-02-12T02:55:36;95464.94;;;2.87;40.78
11415;BME280;5763;42.714;23.244;2023-02-12T02:58:08;95461.88;;;2.92;40.47
11415;BME280;5763;42.714;23.244;2023-02-12T03:00:40;95448.78;;;2.94;40.48
11415;BME280;5763;42.714;23.244;2023-02-12T03:03:12;95456.47;;;2.96;40.60
11415;BME280;5763;42.714;23.244;2023-02-12T03:05:42;95463.47;;;3.00;40.65
11415;BME280;5763;42.714;23.244;2023-02-12T03:08:14;95468.88;;;3.04;40.42
11415;BME280;5763;42.714;23.244;2023-02-12T03:10:47;95467.72;;;3.12;40.57
11415;BME280;5763;42.714;23.244;2023-02-12T03:13:20;95459.97;;;3.03;40.70
11415;BME280;5763;42.714;23.244;2023-02-12T03:15:52;95472.00;;;3.16;40.47
11415;BME280;5763;42.714;23.244;2023-02-12T03:18:21;95466.53;;;3.06;41.32
11415;BME280;5763;42.714;23.244;2023-02-12T03:20:54;95466.53;;;3.06;41.37
11415;BME280;5763;42.714;23.244;2023-02-12T03:23:27;95460.72;;;2.90;42.22
11415;BME280;5763;42.714;23.244;2023-02-12T03:26:00;95463.03;;;2.91;42.02
11415;BME280;5763;42.714;23.244;2023-02-12T03:28:31;95451.47;;;2.94;42.08
11415;BME280;5763;42.714;23.244;2023-02-12T03:31:07;95445.28;;;2.97;42.23
11415;BME280;5763;42.714;23.244;2023-02-12T03:33:43;95446.50;;;3.14;41.60
11415;BME280;5763;42.714;23.244;2023-02-12T03:36:24;95453.81;;;3.13;41.56
11415;BME280;5763;42.714;23.244;2023-02-12T03:38:55;95464.25;;;3.08;41.73
11415;BME280;5763;42.714;23.244;2023-02-12T03:41:31;95439.47;;;2.85;42.22
11415;BME280;5763;42.714;23.244;2023-02-12T03:44:07;95457.63;;;2.91;42.19
11415;BME280;5763;42.714;23.244;2023-02-12T03:46:40;95454.94;;;2.95;42.05
11415;BME280;5763;42.714;23.244;2023-02-12T03:49:13;95451.09;;;3.03;42.12
11415;BME280;5763;42.714;23.244;2023-02-12T03:51:44;95446.50;;;3.10;41.89
11415;BME280;5763;42.714;23.244;2023-02-12T03:54:14;95453.44;;;3.18;41.77
11415;BME280;5763;42.714;23.244;2023-02-12T03:56:45;95446.16;;;3.36;41.34
11415;BME280;5763;42.714;23.244;2023-02-12T03:59:13;95455.81;;;3.51;40.84
11415;BME280;5763;42.714;23.244;2023-02-12T04:01:42;95460.06;;;3.52;40.85
11415;BME280;5763;42.714;23.244;2023-02-12T04:04:10;95447.69;;;3.58;40.80
11415;BME280;5763;42.714;23.244;2023-02-12T04:06:38;95435.72;;;3.52;40.71
11415;BME280;5763;42.714;23.244;2023-02-12T04:09:09;95440.34;;;3.52;40.76
11415;BME280;5763;42.714;23.244;2023-02-12T04:11:45;95444.22;;;3.54;40.97
11415;BME280;5763;42.714;23.244;2023-02-12T04:14:23;95453.09;;;3.65;40.90
11415;BME280;5763;42.714;23.244;2023-02-12T04:16:59;95458.91;;;3.60;40.62
11415;BME280;5763;42.714;23.244;2023-02-12T04:19:34;95460.06;;;3.63;40.71
11415;BME280;5763;42.714;23.244;2023-02-12T04:22:14;95467.81;;;3.57;40.91
11415;BME280;5763;42.714;23.244;2023-02-12T04:24:49;95465.47;;;3.52;41.39
11415;BME280;5763;42.714;23.244;2023-02-12T04:27:25;95470.91;;;3.66;41.47
11415;BME280;5763;42.714;23.244;2023-02-12T04:29:57;95468.59;;;3.61;41.44
11415;BME280;5763;42.714;23.244;2023-02-12T04:32:33;95460.47;;;3.61;41.33
11415;BME280;5763;42.714;23.244;2023-02-12T04:35:09;95461.59;;;3.60;41.31
11415;BME280;5763;42.714;23.244;2023-02-12T04:37:41;95473.22;;;3.61;41.06
11415;BME280;5763;42.714;23.244;2023-02-12T04:40:12;95478.22;;;3.55;41.63
11415;BME280;5763;42.714;23.244;2023-02-12T04:42:41;95473.59;;;3.59;41.43
11415;BME280;5763;42.714;23.244;2023-02-12T04:45:09;95480.16;;;3.65;41.64
11415;BME280;5763;42.714;23.244;2023-02-12T04:47:37;95467.41;;;3.62;41.52
11415;BME280;5763;42.714;23.244;2023-02-12T04:50:05;95480.97;;;3.80;41.60
11415;BME280;5763;42.714;23.244;2023-02-12T04:52:32;95495.63;;;3.75;41.52
11415;BME280;5763;42.714;23.244;2023-02-12T04:54:59;95491.38;;;3.60;41.53
11415;BME280;5763;42.714;23.244;2023-02-12T04:57:26;95491.38;;;3.60;41.49
11415;BME280;5763;42.714;23.244;2023-02-12T04:59:52;95483.66;;;3.59;41.32
11415;BME280;5763;42.714;23.244;2023-02-12T05:02:19;95483.63;;;3.55;41.17
11415;BME280;5763;42.714;23.244;2023-02-12T05:04:49;95488.28;;;3.65;41.36
11415;BME280;5763;42.714;23.244;2023-02-12T05:07:15;95506.47;;;3.68;41.50
11415;BME280;5763;42.714;23.244;2023-02-12T05:09:42;95496.78;;;3.71;41.55
11415;BME280;5763;42.714;23.244;2023-02-12T05:12:09;95497.56;;;3.68;41.41
11415;BME280;5763;42.714;23.244;2023-02-12T05:14:36;95507.59;;;3.53;41.50
11415;BME280;5763;42.714;23.244;2023-02-12T05:17:03;95504.50;;;3.48;41.38
11415;BME280;5763;42.714;23.244;2023-02-12T05:19:30;95499.06;;;3.44;41.49
11415;BME280;5763;42.714;23.244;2023-02-12T05:21:58;95518.38;;;3.32;42.14
11415;BME280;5763;42.714;23.244;2023-02-12T05:24:24;95521.47;;;3.27;42.37
11415;BME280;5763;42.714;23.244;2023-02-12T05:26:51;95514.44;;;3.05;43.40
11415;BME280;5763;42.714;23.244;2023-02-12T05:29:18;95523.31;;;3.02;43.86
11415;BME280;5763;42.714;23.244;2023-02-12T05:31:45;95517.09;;;2.91;44.80
11415;BME280;5763;42.714;23.244;2023-02-12T05:34:12;95525.56;;;2.90;45.06
11415;BME280;5763;42.714;23.244;2023-02-12T05:36:40;95520.53;;;2.78;46.36
11415;BME280;5763;42.714;23.244;2023-02-12T05:39:09;95527.84;;;2.77;46.94
11415;BME280;5763;42.714;23.244;2023-02-12T05:41:36;95533.59;;;2.65;47.68
11415;BME280;5763;42.714;23.244;2023-02-12T05:44:04;95526.66;;;2.68;48.09
11415;BME280;5763;42.714;23.244;2023-02-12T05:46:32;95529.72;;;2.63;48.77
11415;BME280;5763;42.714;23.244;2023-02-12T05:48:59;95531.88;;;2.40;50.48
11415;BME280;5763;42.714;23.244;2023-02-12T05:51:26;95541.13;;;2.35;51.11
11415;BME280;5763;42.714;23.244;2023-02-12T05:53:56;95538.78;;;2.30;51.84
11415;BME280;5763;42.714;23.244;2023-02-12T05:56:26;95538.41;;;2.35;51.64
11415;BME280;5763;42.714;23.244;2023-02-12T05:58:56;95544.19;;;2.34;51.75
11415;BME280;5763;42.714;23.244;2023-02-12T06:01:25;95548.75;;;2.26;52.56
11415;BME280;5763;42.714;23.244;2023-02-12T06:03:53;95551.06;;;2.24;52.71
11415;BME280;5763;42.714;23.244;2023-02-12T06:06:20;95551.47;;;2.26;53.36
11415;BME280;5763;42.714;23.244;2023-02-12T06:08:47;95545.34;;;2.36;54.12
11415;BME280;5763;42.714;23.244;2023-02-12T06:11:15;95548.41;;;2.28;55.19
11415;BME280;5763;42.714;23.244;2023-02-12T06:13:44;95555.34;;;2.29;55.84
11415;BME280;5763;42.714;23.244;2023-02-12T06:16:19;95554.16;;;2.26;56.98
11415;BME280;5763;42.714;23.244;2023-02-12T06:18:46;95554.59;;;2.28;58.23
11415;BME280;5763;42.714;23.244;2023-02-12T06:21:13;95557.22;;;2.21;59.53
11415;BME280;5763;42.714;23.244;2023-02-12T06:23:40;95544.13;;;2.23;60.28
11415;BME280;5763;42.714;23.244;2023-02-12T06:26:07;95545.31;;;2.26;61.00
11415;BME280;5763;42.714;23.244;2023-02-12T06:28:33;95540.34;;;2.35;61.42
11415;BME280;5763;42.714;23.244;2023-02-12T06:31:02;95537.28;;;2.40;61.30
11415;BME280;5763;42.714;23.244;2023-02-12T06:33:29;95534.97;;;2.38;61.73
11415;BME280;5763;42.714;23.244;2023-02-12T06:35:56;95539.56;;;2.31;62.91
11415;BME280;5763;42.714;23.244;2023-02-12T06:38:23;95547.69;;;2.34;63.07
11415;BME280;5763;42.714;23.244;2023-02-12T06:40:49;95555.34;;;2.32;64.19
11415;BME280;5763;42.714;23.244;2023-02-12T06:43:17;95553.44;;;2.29;64.58
11415;BME280;5763;42.714;23.244;2023-02-12T06:45:44;95556.84;;;2.23;65.16
11415;BME280;5763;42.714;23.244;2023-02-12T06:48:12;95555.34;;;2.29;65.11
11415;BME280;5763;42.714;23.244;2023-02-12T06:50:38;95550.72;;;2.26;65.10
11415;BME280;5763;42.714;23.244;2023-02-12T06:53:05;95556.13;;;2.29;64.80
11415;BME280;5763;42.714;23.244;2023-02-12T06:55:33;95548.06;;;2.40;64.60
11415;BME280;5763;42.714;23.244;2023-02-12T06:58:00;95554.34;;;2.51;63.60
11415;BME280;5763;42.714;23.244;2023-02-12T07:00:27;95554.38;;;2.54;63.54
11415;BME280;5763;42.714;23.244;2023-02-12T07:02:54;95550.50;;;2.55;62.87
11415;BME280;5763;42.714;23.244;2023-02-12T07:05:23;95557.88;;;2.62;62.78
11415;BME280;5763;42.714;23.244;2023-02-12T07:07:50;95555.19;;;2.65;62.60
11415;BME280;5763;42.714;23.244;2023-02-12T07:10:17;95557.53;;;2.70;62.16
11415;BME280;5763;42.714;23.244;2023-02-12T07:12:45;95554.09;;;2.77;61.81
11415;BME280;5763;42.714;23.244;2023-02-12T07:15:12;95559.91;;;2.86;61.31
11415;BME280;5763;42.714;23.244;2023-02-12T07:17:39;95549.88;;;2.86;61.66
11415;BME280;5763;42.714;23.244;2023-02-12T07:20:07;95553.75;;;2.85;61.26
11415;BME280;5763;42.714;23.244;2023-02-12T07:22:36;95554.56;;;2.89;61.09
11415;BME280;5763;42.714;23.244;2023-02-12T07:25:03;95566.19;;;3.04;60.69
11415;BME280;5763;42.714;23.244;2023-02-12T07:27:30;95565.81;;;3.05;60.52
11415;BME280;5763;42.714;23.244;2023-02-12T07:29:57;95566.63;;;3.16;60.11
11415;BME280;5763;42.714;23.244;2023-02-12T07:32:24;95576.69;;;3.23;59.76
11415;BME280;5763;42.714;23.244;2023-02-12T07:34:51;95574.41;;;3.32;59.57
11415;BME280;5763;42.714;23.244;2023-02-12T07:37:17;95572.47;;;3.25;59.96
11415;BME280;5763;42.714;23.244;2023-02-12T07:39:48;95579.72;;;3.11;60.32
11415;BME280;5763;42.714;23.244;2023-02-12T07:42:15;95418.97;;;1.91;60.91
11415;BME280;5763;42.714;23.244;2023-02-12T07:44:42;95574.22;;;2.90;61.51
11415;BME280;5763;42.714;23.244;2023-02-12T07:47:09;95576.16;;;2.89;61.50
11415;BME280;5763;42.714;23.244;2023-02-12T07:49:36;95576.56;;;2.95;61.66
11415;BME280;5763;42.714;23.244;2023-02-12T07:52:03;95578.91;;;2.96;61.58
11415;BME280;5763;42.714;23.244;2023-02-12T07:54:29;95577.38;;;2.99;61.68
11415;BME280;5763;42.714;23.244;2023-02-12T07:56:58;95575.00;;;2.90;62.14
11415;BME280;5763;42.714;23.244;2023-02-12T07:59:25;95573.41;;;2.79;62.32
11415;BME280;5763;42.714;23.244;2023-02-12T08:01:53;95579.59;;;2.83;62.49
11415;BME280;5763;42.714;23.244;2023-02-12T08:04:22;95580.78;;;2.85;62.34
11415;BME280;5763;42.714;23.244;2023-02-12T08:06:51;95584.28;;;2.89;62.52
11415;BME280;5763;42.714;23.244;2023-02-12T08:09:20;95577.28;;;2.81;62.80
11415;BME280;5763;42.714;23.244;2023-02-12T08:11:47;95587.34;;;2.88;62.98
11415;BME280;5763;42.714;23.244;2023-02-12T08:14:17;95574.19;;;2.79;63.05
11415;BME280;5763;42.714;23.244;2023-02-12T08:16:46;95552.06;;;2.60;63.41
11415;BME280;5763;42.714;23.244;2023-02-12T08:19:13;95578.00;;;2.75;63.26
11415;BME280;5763;42.714;23.244;2023-02-12T08:21:39;95586.63;;;2.94;62.83
11415;BME280;5763;42.714;23.244;2023-02-12T08:24:06;95591.69;;;3.06;62.20
11415;BME280;5763;42.714;23.244;2023-02-12T08:26:36;95597.09;;;3.06;62.43
11415;BME280;5763;42.714;23.244;2023-02-12T08:29:04;95605.63;;;3.15;62.05
11415;BME280;5763;42.714;23.244;2023-02-12T08:31:34;95607.53;;;3.11;62.15
11415;BME280;5763;42.714;23.244;2023-02-12T08:34:02;95587.81;;;3.07;62.21
11415;BME280;5763;42.714;23.244;2023-02-12T08:36:30;95599.06;;;3.16;62.25
11415;BME280;5763;42.714;23.244;2023-02-12T08:38:58;95603.31;;;3.17;62.42
11415;BME280;5763;42.714;23.244;2023-02-12T08:41:26;95597.53;;;3.15;62.21
11415;BME280;5763;42.714;23.244;2023-02-12T08:43:55;95607.56;;;3.22;62.34
11415;BME280;5763;42.714;23.244;2023-02-12T08:46:23;95608.72;;;3.17;62.20
11415;BME280;5763;42.714;23.244;2023-02-12T08:48:53;95623.44;;;3.23;62.41
11415;BME280;5763;42.714;23.244;2023-02-12T08:51:22;95621.47;;;3.17;62.78
11415;BME280;5763;42.714;23.244;2023-02-12T08:53:52;95617.22;;;3.16;62.85
11415;BME280;5763;42.714;23.244;2023-02-12T08:56:19;95616.84;;;3.21;62.76
11415;BME280;5763;42.714;23.244;2023-02-12T08:58:46;95624.59;;;3.22;62.38
11415;BME280;5763;42.714;23.244;2023-02-12T09:01:15;95621.16;;;3.32;62.32
11415;BME280;5763;42.714;23.244;2023-02-12T09:03:43;95624.22;;;3.27;62.55
11415;BME280;5763;42.714;23.244;2023-02-12T09:06:12;95623.47;;;3.30;62.60
11415;BME280;5763;42.714;23.244;2023-02-12T09:08:39;95623.50;;;3.34;62.17
11415;BME280;5763;42.714;23.244;2023-02-12T09:11:09;95642.81;;;3.36;62.34
11415;BME280;5763;42.714;23.244;2023-02-12T09:13:37;95645.16;;;3.48;62.28
11415;BME280;5763;42.714;23.244;2023-02-12T09:16:05;95647.53;;;3.56;61.82
11415;BME280;5763;42.714;23.244;2023-02-12T09:18:32;95641.72;;;3.54;61.77
11415;BME280;5763;42.714;23.244;2023-02-12T09:21:00;95647.50;;;3.53;62.02
11415;BME280;5763;42.714;23.244;2023-02-12T09:23:29;95639.75;;;3.44;62.20
11415;BME280;5763;42.714;23.244;2023-02-12T09:25:56;95643.59;;;3.36;61.87
11415;BME280;5763;42.714;23.244;2023-02-12T09:28:23;95645.91;;;3.38;62.22
11415;BME280;5763;42.714;23.244;2023-02-12T09:30:50;95647.50;;;3.49;62.07
11415;BME280;5763;42.714;23.244;2023-02-12T09:33:17;95647.47;;;3.46;62.32
11415;BME280;5763;42.714;23.244;2023-02-12T09:35:44;95649.81;;;3.47;62.08
11415;BME280;5763;42.714;23.244;2023-02-12T09:38:10;95644.00;;;3.45;62.49
11415;BME280;5763;42.714;23.244;2023-02-12T09:40:43;95642.81;;;3.39;62.80
11415;BME280;5763;42.714;23.244;2023-02-12T09:43:17;95649.00;;;3.36;63.17
11415;BME280;5763;42.714;23.244;2023-02-12T09:45:52;95638.19;;;3.40;62.85
11415;BME280;5763;42.714;23.244;2023-02-12T09:48:42;95643.25;;;3.55;62.71
11415;BME280;5763;42.714;23.244;2023-02-12T09:51:13;95647.94;;;3.65;62.01
11415;BME280;5763;42.714;23.244;2023-02-12T09:53:43;95663.03;;;3.70;61.98
11415;BME280;5763;42.714;23.244;2023-02-12T09:56:15;95664.53;;;3.60;61.99
11415;BME280;5763;42.714;23.244;2023-02-12T09:58:46;95662.94;;;3.45;62.62
11415;BME280;5763;42.714;23.244;2023-02-12T10:01:16;95666.84;;;3.51;62.81
11415;BME280;5763;42.714;23.244;2023-02-12T10:03:43;95661.44;;;3.58;62.47
11415;BME280;5763;42.714;23.244;2023-02-12T10:06:14;95678.09;;;3.64;62.43
11415;BME280;5763;42.714;23.244;2023-02-12T10:09:05;95673.09;;;3.73;62.15
11415;BME280;5763;42.714;23.244;2023-02-12T10:11:49;95672.38;;;3.93;61.28
11415;BME280;5763;42.714;23.244;2023-02-12T10:17:28;95667.34;;;3.95;60.94
11415;BME280;5763;42.714;23.244;2023-02-12T10:20:14;95673.56;;;3.92;61.21
11415;BME280;5763;42.714;23.244;2023-02-12T10:22:51;95665.81;;;3.84;61.61
11415;BME280;5763;42.714;23.244;2023-02-12T10:25:27;95665.81;;;3.87;61.39
11415;BME280;5763;42.714;23.244;2023-02-12T10:27:59;95667.34;;;3.85;61.56
11415;BME280;5763;42.714;23.244;2023-02-12T10:30:36;95660.00;;;3.92;60.98
11415;BME280;5763;42.714;23.244;2023-02-12T10:33:11;95613.56;;;3.76;60.40
11415;BME280;5763;42.714;23.244;2023-02-12T10:35:43;95653.13;;;4.37;59.70
11415;BME280;5763;42.714;23.244;2023-02-12T10:38:15;95655.44;;;4.66;58.97
11415;BME280;5763;42.714;23.244;2023-02-12T10:40:43;95656.19;;;5.02;57.39
11415;BME280;5763;42.714;23.244;2023-02-12T10:43:12;95653.75;;;5.42;57.38
11415;BME280;5763;42.714;23.244;2023-02-12T10:45:41;95660.56;;;5.85;54.83
11415;BME280;5763;42.714;23.244;2023-02-12T10:48:10;95658.06;;;6.15;54.98
11415;BME280;5763;42.714;23.244;2023-02-12T10:50:50;95666.63;;;6.14;54.19
11415;BME280;5763;42.714;23.244;2023-02-12T10:53:20;95673.72;;;5.97;54.93
11415;BME280;5763;42.714;23.244;2023-02-12T10:55:48;95670.59;;;5.95;54.27
11415;BME280;5763;42.714;23.244;2023-02-12T10:58:21;95666.03;;;5.75;54.92
11415;BME280;5763;42.714;23.244;2023-02-12T11:00:56;95674.94;;;5.79;55.06
11415;BME280;5763;42.714;23.244;2023-02-12T11:03:28;95668.34;;;5.73;55.00
11415;BME280;5763;42.714;23.244;2023-02-12T11:06:11;95661.41;;;5.68;55.47
11415;BME280;5763;42.714;23.244;2023-02-12T11:08:38;95664.91;;;5.69;55.06
11415;BME280;5763;42.714;23.244;2023-02-12T11:11:09;95664.09;;;5.68;55.12
11415;BME280;5763;42.714;23.244;2023-02-12T11:13:39;95673.38;;;5.74;55.21
11415;BME280;5763;42.714;23.244;2023-02-12T11:16:07;95666.00;;;5.78;55.53
11415;BME280;5763;42.714;23.244;2023-02-12T11:18:34;95664.06;;;5.75;55.76
11415;BME280;5763;42.714;23.244;2023-02-12T11:21:05;95510.19;;;4.72;55.29
11415;BME280;5763;42.714;23.244;2023-02-12T11:23:34;95687.78;;;5.71;55.47
11415;BME280;5763;42.714;23.244;2023-02-12T11:26:04;95574.72;;;5.19;55.38
11415;BME280;5763;42.714;23.244;2023-02-12T11:28:32;95705.19;;;5.84;55.01
11415;BME280;5763;42.714;23.244;2023-02-12T11:31:19;95523.28;;;5.05;54.96
11415;BME280;5763;42.714;23.244;2023-02-12T11:34:07;95526.78;;;4.95;54.41
11415;BME280;5763;42.714;23.244;2023-02-12T11:36:36;95605.50;;;5.81;54.01
11415;BME280;5763;42.714;23.244;2023-02-12T11:39:03;95663.47;;;6.22;54.00
11415;BME280;5763;42.714;23.244;2023-02-12T11:41:35;95674.38;;;6.15;54.41
11415;BME280;5763;42.714;23.244;2023-02-12T11:44:09;95714.31;;;6.22;54.67
11415;BME280;5763;42.714;23.244;2023-02-12T11:46:39;95608.63;;;5.76;54.59
11415;BME280;5763;42.714;23.244;2023-02-12T11:49:20;95501.25;;;4.89;54.65
11415;BME280;5763;42.714;23.244;2023-02-12T11:51:50;95700.78;;;6.18;54.33
11415;BME280;5763;42.714;23.244;2023-02-12T11:54:20;95632.66;;;5.81;54.09
11415;BME280;5763;42.714;23.244;2023-02-12T11:56:48;95490.38;;;4.96;54.15
11415;BME280;5763;42.714;23.244;2023-02-12T11:59:25;95657.03;;;5.95;53.71
11415;BME280;5763;42.714;23.244;2023-02-12T12:01:58;95588.03;;;5.75;53.60
11415;BME280;5763;42.714;23.244;2023-02-12T12:04:28;95487.66;;;4.96;53.79
11415;BME280;5763;42.714;23.244;2023-02-12T12:07:02;95662.75;;;6.15;53.43
11415;BME280;5763;42.714;23.244;2023-02-12T12:09:35;95658.84;;;6.19;53.16
11415;BME280;5763;42.714;23.244;2023-02-12T12:12:09;95523.63;;;5.07;53.55
11415;BME280;5763;42.714;23.244;2023-02-12T12:14:41;95613.66;;;5.74;53.31
11415;BME280;5763;42.714;23.244;2023-02-12T12:17:39;95621.84;;;5.67;53.58
11415;BME280;5763;42.714;23.244;2023-02-12T12:20:29;95678.72;;;6.06;53.76
11415;BME280;5763;42.714;23.244;2023-02-12T12:23:02;95590.91;;;5.47;54.27
11415;BME280;5763;42.714;23.244;2023-02-12T12:25:36;95665.16;;;5.95;54.04
11415;BME280;5763;42.714;23.244;2023-02-12T12:28:17;95605.69;;;5.32;54.00
11415;BME280;5763;42.714;23.244;2023-02-12T12:30:58;95630.44;;;5.48;54.23
11415;BME280;5763;42.714;23.244;2023-02-12T12:33:40;95662.53;;;5.85;54.50
11415;BME280;5763;42.714;23.244;2023-02-12T12:36:42;95595.16;;;5.48;54.36
11415;BME280;5763;42.714;23.244;2023-02-12T12:39:16;95585.50;;;5.37;54.42
11415;BME280;5763;42.714;23.244;2023-02-12T12:44:44;95584.78;;;5.29;54.45
11415;BME280;5763;42.714;23.244;2023-02-12T12:47:23;95653.97;;;5.79;54.31
11415;BME280;5763;42.714;23.244;2023-02-12T12:50:01;95555.38;;;5.17;53.84
11415;BME280;5763;42.714;23.244;2023-02-12T12:52:52;95511.38;;;4.68;54.83
11415;BME280;5763;42.714;23.244;2023-02-12T12:58:41;95686.56;;;5.83;54.91
11415;BME280;5763;42.714;23.244;2023-02-12T13:01:37;95689.69;;;5.74;54.43
11415;BME280;5763;42.714;23.244;2023-02-12T13:07:41;95645.97;;;5.51;54.59
11415;BME280;5763;42.714;23.244;2023-02-12T13:10:21;95695.03;;;5.95;54.47
11415;BME280;5763;42.714;23.244;2023-02-12T13:12:59;95570.56;;;5.04;54.50
11415;BME280;5763;42.714;23.244;2023-02-12T13:15:38;95709.47;;;5.89;54.23
11415;BME280;5763;42.714;23.244;2023-02-12T13:18:15;95562.44;;;4.94;54.58
11415;BME280;5763;42.714;23.244;2023-02-12T13:20:48;95711.81;;;5.76;55.17
11415;BME280;5763;42.714;23.244;2023-02-12T13:23:24;95592.28;;;4.83;54.78
11415;BME280;5763;42.714;23.244;2023-02-12T13:26:01;95677.72;;;5.54;54.54
11415;BME280;5763;42.714;23.244;2023-02-12T13:28:34;95703.22;;;5.92;53.87
11415;BME280;5763;42.714;23.244;2023-02-12T13:31:06;95748.22;;;5.96;53.76
11415;BME280;5763;42.714;23.244;2023-02-12T13:33:40;95600.00;;;4.95;53.63
11415;BME280;5763;42.714;23.244;2023-02-12T13:36:11;95705.06;;;6.16;53.83
11415;BME280;5763;42.714;23.244;2023-02-12T13:38:44;95716.19;;;6.35;53.21
11415;BME280;5763;42.714;23.244;2023-02-12T13:41:14;95634.97;;;5.79;53.47